Terminal Aerodrome Forecast
Issued by NWS Twin Cities, MN

Home | Current Version | Previous Version | Graphics & Text | Print | Product List | Glossary On
Versions: 1 2 3 4 5 6 7 8 9 10 11 12 13 14 15 16 17
000
FTUS43 KMPX 011120
TAFEAU
TAF
KEAU 011120Z 0112/0212 00000KT P6SM SCT070
     FM011500 28008KT P6SM SKC
     FM020100 19004KT P6SM SCT120 PROB30 0202/0206 5SM TSRA OVC060CB
     FM020800 21006KT P6SM SCT060 BKN250=

USA.gov is the U.S. government's official web portal to all federal, state and local government web resources and services.